sensor_id;sensor_type;location;lat;lon;timestamp;pressure;altitude;pressure_sealevel;temperature;humidity
54918;BME280;40818;50.562;7.454;2023-02-08T00:04:37;99792.47;;;-3.34;92.80
54918;BME280;40818;50.562;7.454;2023-02-08T00:14:43;99794.16;;;-3.35;93.28
54918;BME280;40818;50.562;7.454;2023-02-08T00:24:46;99788.22;;;-3.35;93.30
54918;BME280;40818;50.562;7.454;2023-02-08T00:34:54;99781.50;;;-3.33;92.68
54918;BME280;40818;50.562;7.454;2023-02-08T00:44:57;99759.59;;;-3.28;91.82
54918;BME280;40818;50.562;7.454;2023-02-08T00:55:04;99759.53;;;-3.31;91.61
54918;BME280;40818;50.562;7.454;2023-02-08T01:05:08;99762.13;;;-3.30;91.31
54918;BME280;40818;50.562;7.454;2023-02-08T01:15:15;99763.66;;;-3.36;91.77
54918;BME280;40818;50.562;7.454;2023-02-08T01:25:19;99763.66;;;-3.36;90.88
54918;BME280;40818;50.562;7.454;2023-02-08T01:35:25;99773.81;;;-3.36;89.88
54918;BME280;40818;50.562;7.454;2023-02-08T01:45:30;99768.06;;;-3.64;91.85
54918;BME280;40818;50.562;7.454;2023-02-08T01:55:38;99764.50;;;-3.71;91.79
54918;BME280;40818;50.562;7.454;2023-02-08T02:05:47;99755.19;;;-3.72;90.82
54918;BME280;40818;50.562;7.454;2023-02-08T02:15:54;99736.84;;;-3.60;88.26
54918;BME280;40818;50.562;7.454;2023-02-08T02:26:31;99724.97;;;-3.61;87.11
54918;BME280;40818;50.562;7.454;2023-02-08T02:36:47;99717.00;;;-3.77;88.16
54918;BME280;40818;50.562;7.454;2023-02-08T02:46:58;99716.69;;;-3.89;88.27
54918;BME280;40818;50.562;7.454;2023-02-08T02:57:10;99727.00;;;-3.83;84.52
54918;BME280;40818;50.562;7.454;2023-02-08T03:07:24;99740.59;;;-3.81;83.14
54918;BME280;40818;50.562;7.454;2023-02-08T03:17:45;99724.41;;;-3.84;82.09
54918;BME280;40818;50.562;7.454;2023-02-08T03:28:00;99734.47;;;-3.89;83.52
54918;BME280;40818;50.562;7.454;2023-02-08T03:38:13;99737.75;;;-3.93;82.51
54918;BME280;40818;50.562;7.454;2023-02-08T03:48:20;99739.53;;;-3.89;82.31
54918;BME280;40818;50.562;7.454;2023-02-08T03:58:31;99732.97;;;-3.81;79.03
54918;BME280;40818;50.562;7.454;2023-02-08T04:08:36;99745.88;;;-3.73;76.60
54918;BME280;40818;50.562;7.454;2023-02-08T04:18:42;99745.09;;;-3.69;75.20
54918;BME280;40818;50.562;7.454;2023-02-08T04:28:46;99732.97;;;-3.81;75.11
54918;BME280;40818;50.562;7.454;2023-02-08T04:38:52;99721.97;;;-3.81;75.27
54918;BME280;40818;50.562;7.454;2023-02-08T04:48:55;99719.47;;;-3.80;75.07
54918;BME280;40818;50.562;7.454;2023-02-08T04:59:02;99721.09;;;-3.82;75.21
54918;BME280;40818;50.562;7.454;2023-02-08T05:09:06;99716.75;;;-3.86;75.72
54918;BME280;40818;50.562;7.454;2023-02-08T05:19:13;99713.22;;;-3.92;76.33
54918;BME280;40818;50.562;7.454;2023-02-08T05:29:16;99713.91;;;-3.98;77.78
54918;BME280;40818;50.562;7.454;2023-02-08T05:39:22;99716.22;;;-4.09;78.73
54918;BME280;40818;50.562;7.454;2023-02-08T05:49:26;99720.47;;;-4.06;79.36
54918;BME280;40818;50.562;7.454;2023-02-08T05:59:32;99718.84;;;-4.04;77.98
54918;BME280;40818;50.562;7.454;2023-02-08T06:09:35;99724.69;;;-4.07;76.71
54918;BME280;40818;50.562;7.454;2023-02-08T06:19:41;99728.50;;;-4.24;78.08
54918;BME280;40818;50.562;7.454;2023-02-08T06:29:45;99724.94;;;-4.31;78.56
54918;BME280;40818;50.562;7.454;2023-02-08T06:39:51;99729.25;;;-4.29;78.42
54918;BME280;40818;50.562;7.454;2023-02-08T06:49:54;99726.63;;;-4.30;78.43
54918;BME280;40818;50.562;7.454;2023-02-08T07:00:01;99725.47;;;-4.09;76.86
54918;BME280;40818;50.562;7.454;2023-02-08T07:10:05;99726.03;;;-3.88;76.62
54918;BME280;40818;50.562;7.454;2023-02-08T07:20:12;99724.34;;;-3.51;74.13
54918;BME280;40818;50.562;7.454;2023-02-08T07:30:16;99716.47;;;-3.25;71.50
54918;BME280;40818;50.562;7.454;2023-02-08T07:40:22;99714.69;;;-2.89;70.41
54918;BME280;40818;50.562;7.454;2023-02-08T07:50:25;99699.28;;;-2.54;68.41
54918;BME280;40818;50.562;7.454;2023-02-08T08:00:31;99690.94;;;-1.98;64.88
54918;BME280;40818;50.562;7.454;2023-02-08T08:10:35;99679.59;;;-1.65;64.91
54918;BME280;40818;50.562;7.454;2023-02-08T08:20:41;99673.19;;;-1.37;62.96
54918;BME280;40818;50.562;7.454;2023-02-08T08:30:45;99683.78;;;-1.06;62.27
54918;BME280;40818;50.562;7.454;2023-02-08T08:40:51;99688.25;;;-0.88;64.22
54918;BME280;40818;50.562;7.454;2023-02-08T08:50:54;99683.44;;;-0.66;60.46
54918;BME280;40818;50.562;7.454;2023-02-08T09:01:03;99686.41;;;-0.26;59.03
54918;BME280;40818;50.562;7.454;2023-02-08T09:11:09;99683.06;;;-0.16;55.82
54918;BME280;40818;50.562;7.454;2023-02-08T09:21:16;99685.72;;;-0.07;55.24
54918;BME280;40818;50.562;7.454;2023-02-08T09:31:22;99686.19;;;0.60;53.33
54918;BME280;40818;50.562;7.454;2023-02-08T09:51:56;99687.09;;;0.63;49.92
54918;BME280;40818;50.562;7.454;2023-02-08T10:02:13;99687.38;;;1.22;52.16
54918;BME280;40818;50.562;7.454;2023-02-08T10:12:28;99688.31;;;1.44;49.80
54918;BME280;40818;50.562;7.454;2023-02-08T10:22:42;99689.22;;;1.62;48.74
54918;BME280;40818;50.562;7.454;2023-02-08T10:32:59;99680.72;;;2.04;48.95
54918;BME280;40818;50.562;7.454;2023-02-08T10:43:18;99680.69;;;2.54;48.21
54918;BME280;40818;50.562;7.454;2023-02-08T10:53:23;99668.59;;;2.96;44.44
54918;BME280;40818;50.562;7.454;2023-02-08T11:03:29;99653.16;;;3.12;43.03
54918;BME280;40818;50.562;7.454;2023-02-08T11:13:35;99645.50;;;2.96;40.82
54918;BME280;40818;50.562;7.454;2023-02-08T11:23:48;99659.19;;;2.94;38.23
54918;BME280;40818;50.562;7.454;2023-02-08T11:33:58;99632.69;;;3.01;41.30
54918;BME280;40818;50.562;7.454;2023-02-08T11:44:06;99639.44;;;3.19;40.06
54918;BME280;40818;50.562;7.454;2023-02-08T11:54:31;99614.34;;;3.64;39.57
54918;BME280;40818;50.562;7.454;2023-02-08T12:04:38;99601.22;;;4.01;39.42
54918;BME280;40818;50.562;7.454;2023-02-08T12:14:48;99592.00;;;3.79;38.75
54918;BME280;40818;50.562;7.454;2023-02-08T12:25:09;99594.44;;;3.91;38.81
54918;BME280;40818;50.562;7.454;2023-02-08T12:35:43;99570.13;;;4.26;38.88
54918;BME280;40818;50.562;7.454;2023-02-08T12:45:58;99568.19;;;4.48;40.28
54918;BME280;40818;50.562;7.454;2023-02-08T12:56:11;99549.66;;;4.91;40.58
54918;BME280;40818;50.562;7.454;2023-02-08T13:06:22;99553.84;;;4.25;40.38
54918;BME280;40818;50.562;7.454;2023-02-08T13:16:31;99540.59;;;3.80;40.57
54918;BME280;40818;50.562;7.454;2023-02-08T13:26:39;99528.72;;;3.65;42.21
54918;BME280;40818;50.562;7.454;2023-02-08T13:36:49;99526.34;;;3.40;42.32
54918;BME280;40818;50.562;7.454;2023-02-08T13:46:57;99536.88;;;3.00;43.28
54918;BME280;40818;50.562;7.454;2023-02-08T13:57:01;99522.50;;;2.70;44.10
54918;BME280;40818;50.562;7.454;2023-02-08T14:07:23;99512.28;;;2.65;45.93
54918;BME280;40818;50.562;7.454;2023-02-08T14:17:32;99497.84;;;2.36;44.90
54918;BME280;40818;50.562;7.454;2023-02-08T14:27:41;99499.59;;;2.31;44.74
54918;BME280;40818;50.562;7.454;2023-02-08T14:37:46;99492.00;;;2.00;44.87
54918;BME280;40818;50.562;7.454;2023-02-08T14:47:57;99484.34;;;1.94;46.08
54918;BME280;40818;50.562;7.454;2023-02-08T14:58:02;99469.84;;;1.82;47.27
54918;BME280;40818;50.562;7.454;2023-02-08T15:08:11;99467.31;;;1.59;48.67
54918;BME280;40818;50.562;7.454;2023-02-08T15:18:17;99466.50;;;1.45;46.92
54918;BME280;40818;50.562;7.454;2023-02-08T15:28:26;99458.81;;;1.39;45.69
54918;BME280;40818;50.562;7.454;2023-02-08T15:38:30;99448.56;;;1.09;47.56
54918;BME280;40818;50.562;7.454;2023-02-08T15:48:38;99450.25;;;0.90;50.74
54918;BME280;40818;50.562;7.454;2023-02-08T15:58:45;99426.38;;;0.73;51.71
54918;BME280;40818;50.562;7.454;2023-02-08T16:08:57;99410.97;;;0.36;53.67
54918;BME280;40818;50.562;7.454;2023-02-08T16:19:03;99409.25;;;0.25;54.08
54918;BME280;40818;50.562;7.454;2023-02-08T16:29:17;99406.59;;;-0.01;53.42
54918;BME280;40818;50.562;7.454;2023-02-08T16:39:34;99408.25;;;-0.06;53.16
54918;BME280;40818;50.562;7.454;2023-02-08T16:49:41;99403.06;;;-0.28;53.35
54918;BME280;40818;50.562;7.454;2023-02-08T16:59:45;99392.78;;;-0.40;52.95
54918;BME280;40818;50.562;7.454;2023-02-08T17:09:51;99391.72;;;-0.72;52.59
54918;BME280;40818;50.562;7.454;2023-02-08T17:19:54;99399.28;;;-0.86;52.84
54918;BME280;40818;50.562;7.454;2023-02-08T17:30:00;99394.16;;;-0.89;52.13
54918;BME280;40818;50.562;7.454;2023-02-08T17:40:04;99387.13;;;-1.17;53.23
54918;BME280;40818;50.562;7.454;2023-02-08T17:50:12;99367.59;;;-1.17;53.94
54918;BME280;40818;50.562;7.454;2023-02-08T18:00:17;99349.69;;;-1.26;54.92
54918;BME280;40818;50.562;7.454;2023-02-08T18:10:24;99354.56;;;-1.52;56.72
54918;BME280;40818;50.562;7.454;2023-02-08T18:20:27;99346.81;;;-1.63;56.86
54918;BME280;40818;50.562;7.454;2023-02-08T18:30:33;99364.59;;;-1.69;56.97
54918;BME280;40818;50.562;7.454;2023-02-08T18:40:38;99356.16;;;-1.64;56.33
54918;BME280;40818;50.562;7.454;2023-02-08T18:50:44;99361.91;;;-1.82;57.36
54918;BME280;40818;50.562;7.454;2023-02-08T19:01:04;99367.03;;;-1.77;55.87
54918;BME280;40818;50.562;7.454;2023-02-08T19:11:15;99368.72;;;-1.81;56.92
54918;BME280;40818;50.562;7.454;2023-02-08T19:21:20;99372.06;;;-1.85;57.50
54918;BME280;40818;50.562;7.454;2023-02-08T19:31:27;99351.56;;;-1.97;57.88
54918;BME280;40818;50.562;7.454;2023-02-08T19:41:32;99335.34;;;-2.06;58.37
54918;BME280;40818;50.562;7.454;2023-02-08T19:51:39;99328.63;;;-2.00;57.75
54918;BME280;40818;50.562;7.454;2023-02-08T20:01:43;99320.13;;;-1.99;57.49
54918;BME280;40818;50.562;7.454;2023-02-08T20:11:49;99315.16;;;-1.89;59.86
54918;BME280;40818;50.562;7.454;2023-02-08T20:21:53;99322.78;;;-1.92;57.41
54918;BME280;40818;50.562;7.454;2023-02-08T20:31:59;99322.78;;;-1.92;57.43
54918;BME280;40818;50.562;7.454;2023-02-08T20:42:02;99324.41;;;-1.95;58.04
54918;BME280;40818;50.562;7.454;2023-02-08T20:52:09;99322.78;;;-1.89;57.34
54918;BME280;40818;50.562;7.454;2023-02-08T21:02:16;99315.84;;;-2.05;58.86
54918;BME280;40818;50.562;7.454;2023-02-08T21:12:22;99285.22;;;-2.13;59.99
54918;BME280;40818;50.562;7.454;2023-02-08T21:22:26;99279.91;;;-2.31;61.94
54918;BME280;40818;50.562;7.454;2023-02-08T21:32:32;99290.03;;;-2.37;61.83
54918;BME280;40818;50.562;7.454;2023-02-08T21:42:35;99266.06;;;-2.58;63.87
54918;BME280;40818;50.562;7.454;2023-02-08T21:52:41;99258.66;;;-3.05;68.96
54918;BME280;40818;50.562;7.454;2023-02-08T22:02:57;99262.13;;;-3.02;68.25
54918;BME280;40818;50.562;7.454;2023-02-08T22:13:03;99273.19;;;-2.95;66.77
54918;BME280;40818;50.562;7.454;2023-02-08T22:23:06;99268.88;;;-3.02;67.51
54918;BME280;40818;50.562;7.454;2023-02-08T22:33:12;99260.94;;;-3.24;69.82
54918;BME280;40818;50.562;7.454;2023-02-08T22:43:16;99247.34;;;-3.28;70.54
54918;BME280;40818;50.562;7.454;2023-02-08T22:53:22;99243.25;;;-3.18;69.80
54918;BME280;40818;50.562;7.454;2023-02-08T23:03:26;99260.22;;;-3.15;70.30
54918;BME280;40818;50.562;7.454;2023-02-08T23:13:32;99255.09;;;-3.20;71.56
54918;BME280;40818;50.562;7.454;2023-02-08T23:23:36;99261.84;;;-3.19;72.15
54918;BME280;40818;50.562;7.454;2023-02-08T23:33:42;99273.69;;;-3.21;73.35
54918;BME280;40818;50.562;7.454;2023-02-08T23:43:45;99260.09;;;-3.23;74.00
54918;BME280;40818;50.562;7.454;2023-02-08T23:53:52;99250.81;;;-3.22;74.66
